sensor_id;sensor_type;location;lat;lon;timestamp;temperature;humidity
22299;DHT22;11317;51.072;17.036;2022-09-13T19:04:31;19.00;99.90
22299;DHT22;11317;51.072;17.036;2022-09-13T19:07:00;19.10;99.90
22299;DHT22;11317;51.072;17.036;2022-09-13T19:09:29;19.10;1.00
22299;DHT22;11317;51.072;17.036;2022-09-13T19:11:54;19.10;1.00
22299;DHT22;11317;51.072;17.036;2022-09-13T19:58:15;17.80;99.90
22299;DHT22;11317;51.072;17.036;2022-09-13T20:00:44;17.80;99.90
22299;DHT22;11317;51.072;17.036;2022-09-13T20:03:11;17.40;1.00
22299;DHT22;11317;51.072;17.036;2022-09-13T20:05:37;17.90;1.00
22299;DHT22;11317;51.072;17.036;2022-09-13T20:08:03;17.50;1.00
22299;DHT22;11317;51.072;17.036;2022-09-13T20:10:29;17.80;1.00
22299;DHT22;11317;51.072;17.036;2022-09-13T20:12:56;17.20;1.00
22299;DHT22;11317;51.072;17.036;2022-09-13T20:15:24;17.50;1.00
22299;DHT22;11317;51.072;17.036;2022-09-13T20:17:51;17.20;1.00
22299;DHT22;11317;51.072;17.036;2022-09-13T20:20:18;17.20;1.00
22299;DHT22;11317;51.072;17.036;2022-09-13T20:25:10;20.90;1.00
22299;DHT22;11317;51.072;17.036;2022-09-13T20:27:36;17.30;1.00
22299;DHT22;11317;51.072;17.036;2022-09-13T20:30:05;17.20;1.00
22299;DHT22;11317;51.072;17.036;2022-09-13T20:32:32;17.20;1.00
22299;DHT22;11317;51.072;17.036;2022-09-13T20:34:57;17.20;1.00
22299;DHT22;11317;51.072;17.036;2022-09-13T20:37:23;17.40;1.00
22299;DHT22;11317;51.072;17.036;2022-09-13T20:39:49;17.00;1.00
22299;DHT22;11317;51.072;17.036;2022-09-13T20:42:16;17.00;1.00
22299;DHT22;11317;51.072;17.036;2022-09-13T20:44:42;16.90;1.00
22299;DHT22;11317;51.072;17.036;2022-09-13T20:47:10;17.20;1.00
22299;DHT22;11317;51.072;17.036;2022-09-13T20:49:36;16.60;1.00
22299;DHT22;11317;51.072;17.036;2022-09-13T20:52:02;16.90;1.00
22299;DHT22;11317;51.072;17.036;2022-09-13T20:54:28;16.90;1.00
22299;DHT22;11317;51.072;17.036;2022-09-13T20:59:19;16.70;18.30
22299;DHT22;11317;51.072;17.036;2022-09-13T21:04:12;16.10;22.50
22299;DHT22;11317;51.072;17.036;2022-09-13T21:06:40;16.50;23.30
22299;DHT22;11317;51.072;17.036;2022-09-13T21:09:26;16.70;57.50
22299;DHT22;11317;51.072;17.036;2022-09-13T21:14:18;16.60;51.50
22299;DHT22;11317;51.072;17.036;2022-09-13T21:21:40;16.20;67.60
22299;DHT22;11317;51.072;17.036;2022-09-13T21:24:09;16.20;69.90
22299;DHT22;11317;51.072;17.036;2022-09-13T21:26:36;16.10;76.30
22299;DHT22;11317;51.072;17.036;2022-09-13T21:29:04;16.30;96.20
22299;DHT22;11317;51.072;17.036;2022-09-13T21:31:31;17.20;95.90
22299;DHT22;11317;51.072;17.036;2022-09-13T21:34:04;15.90;90.30
22299;DHT22;11317;51.072;17.036;2022-09-13T21:36:31;16.30;89.90
22299;DHT22;11317;51.072;17.036;2022-09-13T21:38:59;15.80;92.10
22299;DHT22;11317;51.072;17.036;2022-09-13T21:41:26;16.60;97.10
22299;DHT22;11317;51.072;17.036;2022-09-13T21:43:53;16.20;93.90
22299;DHT22;11317;51.072;17.036;2022-09-13T21:46:21;16.60;98.40
22299;DHT22;11317;51.072;17.036;2022-09-13T21:48:48;15.50;99.90
22299;DHT22;11317;51.072;17.036;2022-09-13T21:53:41;15.70;99.90
22299;DHT22;11317;51.072;17.036;2022-09-13T21:56:09;16.20;99.90
22299;DHT22;11317;51.072;17.036;2022-09-13T21:58:36;16.30;99.90
22299;DHT22;11317;51.072;17.036;2022-09-13T22:01:12;16.60;99.90
22299;DHT22;11317;51.072;17.036;2022-09-13T22:03:40;16.20;99.90
22299;DHT22;11317;51.072;17.036;2022-09-13T22:06:06;16.20;99.90
22299;DHT22;11317;51.072;17.036;2022-09-13T22:08:37;16.40;99.90
22299;DHT22;11317;51.072;17.036;2022-09-13T22:11:09;16.40;99.90
22299;DHT22;11317;51.072;17.036;2022-09-13T22:13:36;16.10;99.90
22299;DHT22;11317;51.072;17.036;2022-09-13T22:16:14;16.00;99.90
22299;DHT22;11317;51.072;17.036;2022-09-13T22:18:40;16.10;99.90
22299;DHT22;11317;51.072;17.036;2022-09-13T22:21:14;15.90;99.90
22299;DHT22;11317;51.072;17.036;2022-09-13T22:26:14;15.90;99.90
22299;DHT22;11317;51.072;17.036;2022-09-13T22:28:41;15.70;99.90
22299;DHT22;11317;51.072;17.036;2022-09-13T22:31:09;15.20;99.90
22299;DHT22;11317;51.072;17.036;2022-09-13T22:36:03;15.50;99.90
22299;DHT22;11317;51.072;17.036;2022-09-13T22:38:31;15.70;99.90
22299;DHT22;11317;51.072;17.036;2022-09-13T22:40:58;15.90;99.90
22299;DHT22;11317;51.072;17.036;2022-09-13T22:43:24;15.40;99.90
22299;DHT22;11317;51.072;17.036;2022-09-13T22:45:51;15.60;99.90
22299;DHT22;11317;51.072;17.036;2022-09-13T22:48:20;15.80;99.90
22299;DHT22;11317;51.072;17.036;2022-09-13T22:50:53;15.80;99.90
22299;DHT22;11317;51.072;17.036;2022-09-13T22:53:20;15.60;99.90
22299;DHT22;11317;51.072;17.036;2022-09-13T22:55:46;15.20;99.90
22299;DHT22;11317;51.072;17.036;2022-09-13T22:58:12;15.30;99.90
22299;DHT22;11317;51.072;17.036;2022-09-13T23:00:38;14.50;99.90
22299;DHT22;11317;51.072;17.036;2022-09-13T23:03:04;15.20;99.90
22299;DHT22;11317;51.072;17.036;2022-09-13T23:05:30;15.30;99.90
22299;DHT22;11317;51.072;17.036;2022-09-13T23:07:55;15.10;99.90
22299;DHT22;11317;51.072;17.036;2022-09-13T23:10:21;14.90;99.90
22299;DHT22;11317;51.072;17.036;2022-09-13T23:12:47;15.10;99.90
22299;DHT22;11317;51.072;17.036;2022-09-13T23:15:13;15.00;99.90
22299;DHT22;11317;51.072;17.036;2022-09-13T23:17:38;15.30;99.90
22299;DHT22;11317;51.072;17.036;2022-09-13T23:22:31;15.10;99.90
22299;DHT22;11317;51.072;17.036;2022-09-13T23:24:56;15.00;99.90
22299;DHT22;11317;51.072;17.036;2022-09-13T23:29:48;15.30;99.90
22299;DHT22;11317;51.072;17.036;2022-09-13T23:37:07;15.30;99.90
22299;DHT22;11317;51.072;17.036;2022-09-13T23:49:17;15.30;99.90
22299;DHT22;11317;51.072;17.036;2022-09-13T23:59:02;15.30;99.90
